createdAt,value
2018-01-25T00:01:42.914Z,100102.58
2018-01-25T00:04:10.375Z,100097.50
2018-01-25T00:06:37.826Z,100114.64
2018-01-25T00:09:05.370Z,100111.58
2018-01-25T00:11:32.879Z,100091.65
2018-01-25T00:14:00.431Z,100099.73
2018-01-25T00:16:27.908Z,100094.80
2018-01-25T00:18:55.461Z,100089.17
2018-01-25T00:21:23.002Z,100091.75
2018-01-25T00:23:50.497Z,100093.25
2018-01-25T00:26:17.996Z,100097.64
2018-01-25T00:28:45.547Z,100099.41
2018-01-25T00:31:13.056Z,100098.08
2018-01-25T00:33:40.682Z,100094.47
2018-01-25T00:36:08.182Z,100094.84
2018-01-25T00:38:36.351Z,100085.38
2018-01-25T00:41:03.827Z,100090.69
2018-01-25T00:43:31.330Z,100093.14
2018-01-25T00:45:58.786Z,100088.80
2018-01-25T00:48:26.273Z,100100.91
2018-01-25T00:50:53.734Z,100096.75
2018-01-25T00:53:21.219Z,100095.16
2018-01-25T00:55:48.741Z,100107.89
2018-01-25T00:58:16.272Z,100105.94
2018-01-25T01:00:43.751Z,100106.86
2018-01-25T01:03:11.289Z,100115.92
2018-01-25T01:05:38.796Z,100103.83
2018-01-25T01:08:06.277Z,100103.94
2018-01-25T01:10:33.762Z,100118.27
2018-01-25T01:13:01.339Z,100129.30
2018-01-25T01:15:28.847Z,100127.19
2018-01-25T01:17:56.373Z,100134.34
2018-01-25T01:20:23.899Z,100116.16
2018-01-25T01:22:51.431Z,100124.41
2018-01-25T01:25:18.902Z,100123.11
2018-01-25T01:27:46.434Z,100119.30
2018-01-25T01:30:13.911Z,100123.55
2018-01-25T01:32:41.425Z,100123.20
2018-01-25T01:35:09.057Z,100119.88
2018-01-25T01:37:36.534Z,100117.94
2018-01-25T01:40:04.023Z,100112.48
2018-01-25T01:42:31.471Z,100115.92
2018-01-25T01:44:59.185Z,100107.98
2018-01-25T01:47:26.666Z,100108.27
2018-01-25T01:49:54.122Z,100108.70
2018-01-25T01:52:21.619Z,100116.41
2018-01-25T01:54:49.096Z,100121.05
2018-01-25T01:57:16.767Z,100124.09
2018-01-25T01:59:44.228Z,100123.31
2018-01-25T02:02:11.722Z,100117.70
2018-01-25T02:04:39.187Z,100119.03
2018-01-25T02:07:06.670Z,100119.18
2018-01-25T02:09:34.145Z,100116.92
2018-01-25T02:12:01.630Z,100118.11
2018-01-25T02:14:29.117Z,100116.20
2018-01-25T02:16:56.582Z,100118.15
2018-01-25T02:19:24.039Z,100115.60
2018-01-25T02:21:51.562Z,100121.70
2018-01-25T02:24:19.071Z,100114.05
2018-01-25T02:26:46.575Z,100119.48
2018-01-25T02:29:14.053Z,100119.59
2018-01-25T02:31:41.507Z,100123.98
2018-01-25T02:34:08.962Z,100124.13
2018-01-25T02:36:36.523Z,100117.72
2018-01-25T02:39:04.021Z,100122.34
2018-01-25T02:41:31.952Z,100108.91
2018-01-25T02:43:59.435Z,100135.48
2018-01-25T02:46:26.929Z,100113.62
2018-01-25T02:48:54.408Z,100100.79
2018-01-25T02:51:21.902Z,100098.64
2018-01-25T02:53:49.449Z,100102.98
2018-01-25T02:56:16.911Z,100105.17
2018-01-25T02:58:44.394Z,100104.77
2018-01-25T03:01:11.844Z,100098.94
2018-01-25T03:03:39.319Z,100106.10
2018-01-25T03:06:08.205Z,100107.32
2018-01-25T03:08:35.659Z,100109.72
2018-01-25T03:11:03.146Z,100108.42
2018-01-25T03:13:30.633Z,100106.16
2018-01-25T03:15:58.111Z,100105.91
2018-01-25T03:18:25.683Z,100110.45
2018-01-25T03:20:53.173Z,100103.10
2018-01-25T03:23:20.646Z,100098.16
2018-01-25T03:25:48.117Z,100110.49
2018-01-25T03:28:15.611Z,100109.34
2018-01-25T03:30:43.186Z,100116.66
2018-01-25T03:33:10.647Z,100114.69
2018-01-25T03:35:38.174Z,100116.54
2018-01-25T03:38:05.672Z,100115.62
2018-01-25T03:40:33.184Z,100126.11
2018-01-25T03:43:00.766Z,100124.92
2018-01-25T03:45:28.439Z,100127.09
2018-01-25T03:47:55.917Z,100132.88
2018-01-25T03:50:23.392Z,100128.66
2018-01-25T03:52:50.854Z,100134.55
2018-01-25T03:55:18.372Z,100137.98
2018-01-25T03:57:45.868Z,100137.70
2018-01-25T04:00:13.361Z,100136.14
2018-01-25T04:02:40.844Z,100135.16
2018-01-25T04:05:08.364Z,100133.56
2018-01-25T04:07:36.702Z,100141.72
2018-01-25T04:10:04.195Z,100140.02
2018-01-25T04:12:31.686Z,100141.83
2018-01-25T04:14:59.175Z,100152.52
2018-01-25T04:17:26.630Z,100146.39
2018-01-25T04:19:54.127Z,100148.98
2018-01-25T04:22:21.618Z,100148.48
2018-01-25T04:24:49.125Z,100135.72
2018-01-25T04:27:16.709Z,100134.54
2018-01-25T04:29:44.222Z,100131.13
2018-01-25T04:32:11.785Z,100139.53
2018-01-25T04:34:39.289Z,100132.75
2018-01-25T04:37:06.746Z,100125.06
2018-01-25T04:39:34.239Z,100128.38
2018-01-25T04:42:01.735Z,100125.61
2018-01-25T04:44:29.219Z,100123.85
2018-01-25T04:46:56.719Z,100118.42
2018-01-25T04:49:24.180Z,100125.75
2018-01-25T04:51:51.651Z,100122.69
2018-01-25T04:54:19.146Z,100125.23
2018-01-25T04:56:46.598Z,100126.67
2018-01-25T04:59:14.088Z,100126.39
2018-01-25T05:01:41.594Z,100135.83
2018-01-25T05:04:09.134Z,100135.97
2018-01-25T05:06:36.607Z,100129.02
2018-01-25T05:09:04.117Z,100127.95
2018-01-25T05:11:31.652Z,100133.41
2018-01-25T05:13:59.157Z,100139.38
2018-01-25T05:16:27.552Z,100135.41
2018-01-25T05:18:55.056Z,100147.59
2018-01-25T05:21:22.582Z,100150.93
2018-01-25T05:23:50.066Z,100147.38
2018-01-25T05:26:17.629Z,100157.59
2018-01-25T05:28:45.138Z,100155.75
2018-01-25T05:31:12.595Z,100161.31
2018-01-25T05:33:40.117Z,100152.69
2018-01-25T05:36:07.611Z,100148.02
2018-01-25T05:38:35.124Z,100153.35
2018-01-25T05:41:02.575Z,100169.69
2018-01-25T05:43:30.144Z,100156.27
2018-01-25T05:45:57.611Z,100163.66
2018-01-25T05:48:25.091Z,100157.69
2018-01-25T05:50:52.554Z,100163.00
2018-01-25T05:53:20.017Z,100159.02
2018-01-25T05:55:47.599Z,100160.84
2018-01-25T05:58:15.091Z,100159.63
2018-01-25T06:00:42.575Z,100170.25
2018-01-25T06:03:10.047Z,100159.51
2018-01-25T06:05:37.501Z,100164.14
2018-01-25T06:08:05.008Z,100167.34
2018-01-25T06:10:32.494Z,100168.64
2018-01-25T06:12:59.980Z,100164.89
2018-01-25T06:15:27.428Z,100166.59
2018-01-25T06:17:54.906Z,100163.66
2018-01-25T06:20:22.366Z,100156.87
2018-01-25T06:22:50.550Z,100157.27
2018-01-25T06:25:18.021Z,100164.81
2018-01-25T06:27:45.502Z,100156.18
2018-01-25T06:30:13.183Z,100162.27
2018-01-25T06:32:40.654Z,100162.13
2018-01-25T06:35:08.164Z,100176.31
2018-01-25T06:37:35.657Z,100173.25
2018-01-25T06:40:03.279Z,100171.77
2018-01-25T06:42:30.741Z,100169.27
2018-01-25T06:45:02.144Z,100164.64
2018-01-25T06:47:29.657Z,100161.59
2018-01-25T06:49:57.175Z,100164.52
2018-01-25T06:52:24.761Z,100168.77
2018-01-25T06:54:54.108Z,100174.09
2018-01-25T06:57:21.625Z,100182.19
2018-01-25T06:59:49.226Z,100184.23
2018-01-25T07:02:16.687Z,100188.33
2018-01-25T07:04:44.258Z,100185.97
2018-01-25T07:07:11.769Z,100176.52
2018-01-25T07:09:39.251Z,100173.25
2018-01-25T07:12:06.721Z,100177.53
2018-01-25T07:14:34.242Z,100185.75
2018-01-25T07:17:01.774Z,100181.28
2018-01-25T07:19:29.342Z,100187.38
2018-01-25T07:22:02.236Z,100188.94
2018-01-25T07:24:29.699Z,100187.20
2018-01-25T07:26:57.160Z,100183.36
2018-01-25T07:29:24.758Z,100188.96
2018-01-25T07:31:52.241Z,100192.66
2018-01-25T07:34:19.719Z,100191.19
2018-01-25T07:36:47.291Z,100206.23
2018-01-25T07:39:14.827Z,100206.20
2018-01-25T07:41:42.524Z,100213.37
2018-01-25T07:44:10.043Z,100211.78
2018-01-25T07:46:37.653Z,100224.78
2018-01-25T07:49:05.156Z,100221.25
2018-01-25T07:51:32.965Z,100228.79
2018-01-25T07:54:00.630Z,100218.94
2018-01-25T07:56:28.204Z,100224.49
2018-01-25T07:58:55.776Z,100227.44
2018-01-25T08:01:23.295Z,100230.77
2018-01-25T08:03:50.850Z,100231.80
2018-01-25T08:06:18.386Z,100231.11
2018-01-25T08:08:45.902Z,100227.24
2018-01-25T08:11:13.504Z,100231.54
2018-01-25T08:13:41.094Z,100224.33
2018-01-25T08:16:14.176Z,100222.09
2018-01-25T08:18:41.659Z,100217.53
2018-01-25T08:21:09.151Z,100203.88
2018-01-25T08:23:36.672Z,100209.42
2018-01-25T08:26:04.252Z,100211.58
2018-01-25T08:28:31.748Z,100215.23
2018-01-25T08:30:59.234Z,100214.83
2018-01-25T08:33:26.782Z,100214.05
2018-01-25T08:35:54.285Z,100212.72
2018-01-25T08:38:21.739Z,100212.86
2018-01-25T08:40:49.396Z,100211.80
2018-01-25T08:43:16.959Z,100214.77
2018-01-25T08:45:44.424Z,100219.72
2018-01-25T08:48:11.937Z,100227.83
2018-01-25T08:50:39.511Z,100215.61
2018-01-25T08:53:07.171Z,100206.57
2018-01-25T08:55:35.099Z,100207.33
2018-01-25T08:58:02.716Z,100204.09
2018-01-25T09:00:30.254Z,100199.98
2018-01-25T09:02:57.827Z,100211.92
2018-01-25T09:05:25.364Z,100221.59
2018-01-25T09:07:52.828Z,100218.68
2018-01-25T09:10:20.339Z,100224.92
2018-01-25T09:12:47.858Z,100221.83
2018-01-25T09:15:15.409Z,100220.99
2018-01-25T09:17:42.997Z,100217.64
2018-01-25T09:20:10.479Z,100218.05
2018-01-25T09:22:37.981Z,100228.89
2018-01-25T09:25:05.603Z,100222.61
2018-01-25T09:27:33.099Z,100223.43
2018-01-25T09:30:00.610Z,100224.06
2018-01-25T09:32:28.082Z,100233.31
2018-01-25T09:34:55.545Z,100235.02
2018-01-25T09:37:23.025Z,100246.92
2018-01-25T09:39:50.502Z,100245.59
2018-01-25T09:42:17.987Z,100241.05
2018-01-25T09:44:45.461Z,100235.84
2018-01-25T09:47:12.925Z,100243.53
2018-01-25T09:49:40.446Z,100249.42
2018-01-25T09:52:07.945Z,100241.70
2018-01-25T09:54:35.403Z,100242.22
2018-01-25T09:57:02.919Z,100241.12
2018-01-25T09:59:30.389Z,100240.24
2018-01-25T10:01:57.905Z,100244.78
2018-01-25T10:04:25.634Z,100244.34
2018-01-25T10:06:53.461Z,100244.86
2018-01-25T10:09:21.029Z,100240.84
2018-01-25T10:11:48.549Z,100240.81
2018-01-25T10:14:16.066Z,100249.24
2018-01-25T10:16:43.569Z,100242.78
2018-01-25T10:19:11.084Z,100251.69
2018-01-25T10:21:38.593Z,100235.27
2018-01-25T10:24:06.081Z,100241.14
2018-01-25T10:26:33.800Z,100236.78
2018-01-25T10:29:01.326Z,100237.05
2018-01-25T10:31:29.026Z,100232.83
2018-01-25T10:33:56.576Z,100234.08
2018-01-25T10:36:24.200Z,100231.77
2018-01-25T10:38:51.716Z,100231.47
2018-01-25T10:41:19.262Z,100216.05
2018-01-25T10:43:46.833Z,100222.27
2018-01-25T10:46:14.324Z,100213.53
2018-01-25T10:48:41.840Z,100213.80
2018-01-25T10:51:09.444Z,100210.28
2018-01-25T10:53:36.989Z,100205.92
2018-01-25T10:56:04.515Z,100205.25
2018-01-25T10:58:32.033Z,100197.82
2018-01-25T11:01:05.189Z,100201.11
2018-01-25T11:03:32.753Z,100199.48
2018-01-25T11:06:00.242Z,100199.48
2018-01-25T11:08:27.727Z,100199.64
2018-01-25T11:10:55.269Z,100210.39
2018-01-25T11:13:22.971Z,100209.47
2018-01-25T11:15:50.481Z,100206.80
2018-01-25T11:18:17.960Z,100203.22
2018-01-25T11:20:45.759Z,100202.70
2018-01-25T11:23:14.121Z,100197.30
2018-01-25T11:25:42.410Z,100190.02
2018-01-25T11:28:09.897Z,100196.80
2018-01-25T11:30:37.399Z,100193.45
2018-01-25T11:33:10.032Z,100190.77
2018-01-25T11:35:37.590Z,100190.28
2018-01-25T11:38:05.117Z,100191.23
2018-01-25T11:40:33.406Z,100191.97
2018-01-25T11:43:00.895Z,100190.86
2018-01-25T11:45:28.406Z,100181.61
2018-01-25T11:47:55.873Z,100183.82
2018-01-25T11:50:23.540Z,100176.83
2018-01-25T11:52:51.041Z,100173.02
2018-01-25T11:55:18.596Z,100179.83
2018-01-25T11:57:46.190Z,100180.20
2018-01-25T12:00:13.791Z,100182.38
2018-01-25T12:02:41.355Z,100182.34
2018-01-25T12:05:08.897Z,100185.30
2018-01-25T12:07:36.384Z,100186.23
2018-01-25T12:10:03.874Z,100188.34
2018-01-25T12:12:31.405Z,100173.69
2018-01-25T12:14:59.060Z,100177.64
2018-01-25T12:17:26.570Z,100182.48
2018-01-25T12:19:54.131Z,100179.57
2018-01-25T12:22:21.663Z,100177.45
2018-01-25T12:24:49.168Z,100168.06
2018-01-25T12:27:16.643Z,100161.81
2018-01-25T12:29:44.150Z,100165.81
2018-01-25T12:32:11.675Z,100168.52
2018-01-25T12:34:39.610Z,100164.14
2018-01-25T12:37:07.104Z,100156.20
2018-01-25T12:39:34.607Z,100156.83
2018-01-25T12:42:02.119Z,100158.56
2018-01-25T12:44:31.017Z,100153.56
2018-01-25T12:46:58.519Z,100152.23
2018-01-25T12:49:28.675Z,100146.95
2018-01-25T12:51:57.272Z,100146.99
2018-01-25T12:54:25.420Z,100152.62
2018-01-25T12:56:52.899Z,100152.03
2018-01-25T12:59:20.388Z,100150.08
2018-01-25T13:01:47.846Z,100149.19
2018-01-25T13:04:15.326Z,100142.53
2018-01-25T13:06:42.805Z,100141.95
2018-01-25T13:09:10.381Z,100149.08
2018-01-25T13:11:38.040Z,100150.71
2018-01-25T13:14:05.923Z,100141.84
2018-01-25T13:16:33.392Z,100147.75
2018-01-25T13:19:01.116Z,100144.20
2018-01-25T13:21:28.631Z,100147.68
2018-01-25T13:23:56.113Z,100144.44
2018-01-25T13:26:23.723Z,100147.02
2018-01-25T13:28:51.739Z,100142.11
2018-01-25T13:31:19.227Z,100145.59
2018-01-25T13:34:00.923Z,100141.86
2018-01-25T13:36:28.688Z,100137.53
2018-01-25T13:38:56.522Z,100138.80
2018-01-25T13:41:31.690Z,100138.09
2018-01-25T13:43:59.299Z,100138.13
2018-01-25T13:46:26.797Z,100132.99
2018-01-25T13:48:54.522Z,100127.41
2018-01-25T13:51:22.066Z,100126.27
2018-01-25T13:54:08.906Z,100125.23
2018-01-25T13:56:36.405Z,100139.31
2018-01-25T13:59:04.083Z,100136.54
2018-01-25T14:01:31.686Z,100137.38
2018-01-25T14:03:59.197Z,100138.20
2018-01-25T14:06:27.461Z,100138.64
2018-01-25T14:08:55.086Z,100136.79
2018-01-25T14:11:22.615Z,100135.38
2018-01-25T14:13:50.125Z,100136.38
2018-01-25T14:16:17.599Z,100145.31
2018-01-25T14:18:45.357Z,100144.12
2018-01-25T14:21:13.124Z,100149.70
2018-01-25T14:23:45.778Z,100152.48
2018-01-25T14:26:13.327Z,100154.63
2018-01-25T14:28:40.800Z,100154.80
2018-01-25T14:31:08.269Z,100152.80
2018-01-25T14:33:55.322Z,100151.11
2018-01-25T14:36:22.864Z,100157.09
2018-01-25T14:38:50.438Z,100165.61
2018-01-25T14:41:18.178Z,100154.45
2018-01-25T14:43:45.734Z,100156.38
2018-01-25T14:46:13.261Z,100157.30
2018-01-25T14:48:41.152Z,100155.97
2018-01-25T14:51:08.620Z,100155.67
2018-01-25T14:53:36.864Z,100150.39
2018-01-25T14:56:05.008Z,100152.94
2018-01-25T14:58:32.684Z,100151.34
2018-01-25T15:01:01.122Z,100151.49
2018-01-25T15:03:28.588Z,100152.02
2018-01-25T15:05:56.051Z,100150.68
2018-01-25T15:08:23.560Z,100156.27
2018-01-25T15:10:51.986Z,100155.63
2018-01-25T15:13:19.502Z,100160.02
2018-01-25T15:15:47.910Z,100154.84
2018-01-25T15:18:16.280Z,100151.52
2018-01-25T15:20:43.846Z,100158.98
2018-01-25T15:23:11.355Z,100161.90
2018-01-25T15:25:44.480Z,100158.43
2018-01-25T15:28:11.958Z,100164.23
2018-01-25T15:30:39.494Z,100163.20
2018-01-25T15:33:07.130Z,100163.89
2018-01-25T15:35:34.620Z,100159.67
2018-01-25T15:38:02.101Z,100164.53
2018-01-25T15:40:29.610Z,100166.53
2018-01-25T15:42:57.109Z,100165.66
2018-01-25T15:45:24.568Z,100165.84
2018-01-25T15:47:52.025Z,100159.36
2018-01-25T15:50:19.518Z,100165.48
2018-01-25T15:52:47.034Z,100164.97
2018-01-25T15:55:15.602Z,100165.09
2018-01-25T15:57:43.195Z,100161.59
2018-01-25T16:00:10.700Z,100164.10
2018-01-25T16:02:38.495Z,100166.39
2018-01-25T16:05:05.972Z,100161.88
2018-01-25T16:07:33.447Z,100150.47
2018-01-25T16:10:01.168Z,100149.28
2018-01-25T16:12:28.651Z,100152.84
2018-01-25T16:14:56.164Z,100138.85
2018-01-25T16:17:23.615Z,100144.61
2018-01-25T16:19:51.127Z,100142.64
2018-01-25T16:22:18.585Z,100141.69
2018-01-25T16:24:46.164Z,100143.83
2018-01-25T16:27:13.671Z,100145.16
2018-01-25T16:29:41.132Z,100145.94
2018-01-25T16:32:08.758Z,100156.59
2018-01-25T16:34:36.268Z,100147.47
2018-01-25T16:37:03.815Z,100141.74
2018-01-25T16:39:31.360Z,100145.87
2018-01-25T16:41:58.920Z,100146.72
2018-01-25T16:44:26.471Z,100150.44
2018-01-25T16:46:54.002Z,100146.74
2018-01-25T16:49:21.564Z,100146.63
2018-01-25T16:51:49.095Z,100148.13
2018-01-25T16:54:16.626Z,100144.95
2018-01-25T16:56:44.146Z,100149.86
2018-01-25T16:59:11.716Z,100149.17
2018-01-25T17:01:39.295Z,100152.48
2018-01-25T17:04:06.759Z,100154.22
2018-01-25T17:06:34.274Z,100153.94
2018-01-25T17:09:01.841Z,100153.77
2018-01-25T17:11:29.375Z,100158.93
2018-01-25T17:13:56.884Z,100162.28
2018-01-25T17:16:24.397Z,100167.88
2018-01-25T17:18:51.938Z,100167.94
2018-01-25T17:21:19.434Z,100165.14
2018-01-25T17:23:46.966Z,100168.58
2018-01-25T17:26:14.682Z,100167.13
2018-01-25T17:28:42.213Z,100167.94
2018-01-25T17:31:09.991Z,100167.80
2018-01-25T17:33:37.573Z,100169.41
2018-01-25T17:36:06.096Z,100172.84
2018-01-25T17:38:33.687Z,100170.91
2018-01-25T17:41:01.529Z,100179.03
2018-01-25T17:43:29.153Z,100175.30
2018-01-25T17:45:56.755Z,100170.53
2018-01-25T17:48:24.258Z,100170.55
2018-01-25T17:50:51.757Z,100178.41
2018-01-25T17:53:19.228Z,100178.58
2018-01-25T17:55:46.768Z,100192.58
2018-01-25T17:58:14.366Z,100183.80
2018-01-25T18:00:41.916Z,100200.57
2018-01-25T18:03:09.581Z,100195.52
2018-01-25T18:05:37.268Z,100185.05
2018-01-25T18:08:04.736Z,100187.95
2018-01-25T18:10:32.513Z,100195.63
2018-01-25T18:13:00.008Z,100186.59
2018-01-25T18:15:27.568Z,100188.62
2018-01-25T18:17:55.130Z,100187.00
2018-01-25T18:20:22.640Z,100188.21
2018-01-25T18:23:09.562Z,100186.73
2018-01-25T18:25:37.085Z,100188.19
2018-01-25T18:28:04.675Z,100193.91
2018-01-25T18:30:32.179Z,100187.78
2018-01-25T18:32:59.717Z,100191.11
2018-01-25T18:35:27.255Z,100194.66
2018-01-25T18:37:54.796Z,100192.27
2018-01-25T18:40:22.378Z,100192.78
2018-01-25T18:42:49.984Z,100196.77
2018-01-25T18:45:17.523Z,100196.53
2018-01-25T18:47:45.081Z,100197.58
2018-01-25T18:50:12.636Z,100196.11
2018-01-25T18:52:40.140Z,100197.15
2018-01-25T18:55:07.653Z,100193.71
2018-01-25T18:57:35.213Z,100191.95
2018-01-25T19:00:02.785Z,100197.44
2018-01-25T19:02:30.339Z,100192.64
2018-01-25T19:04:57.916Z,100187.90
2018-01-25T19:07:25.428Z,100189.09
2018-01-25T19:09:52.978Z,100187.61
2018-01-25T19:12:25.527Z,100187.47
2018-01-25T19:14:53.106Z,100191.03
2018-01-25T19:17:20.647Z,100189.96
2018-01-25T19:19:48.486Z,100181.47
2018-01-25T19:22:16.115Z,100189.87
2018-01-25T19:24:43.647Z,100177.27
2018-01-25T19:27:11.305Z,100174.77
2018-01-25T19:29:38.819Z,100179.41
2018-01-25T19:32:06.454Z,100177.83
2018-01-25T19:34:34.035Z,100177.68
2018-01-25T19:37:01.587Z,100183.72
2018-01-25T19:39:29.425Z,100178.48
2018-01-25T19:41:57.037Z,100174.81
2018-01-25T19:44:24.593Z,100178.80
2018-01-25T19:46:52.224Z,100180.53
2018-01-25T19:49:19.918Z,100183.97
2018-01-25T19:51:48.545Z,100177.61
2018-01-25T19:54:16.106Z,100183.06
2018-01-25T19:56:43.619Z,100179.69
2018-01-25T19:59:11.125Z,100174.78
2018-01-25T20:01:38.710Z,100166.67
2018-01-25T20:04:06.268Z,100164.91
2018-01-25T20:06:33.990Z,100174.07
2018-01-25T20:09:01.553Z,100180.19
2018-01-25T20:11:29.061Z,100181.23
2018-01-25T20:13:56.646Z,100175.66
2018-01-25T20:16:24.134Z,100176.84
2018-01-25T20:18:51.708Z,100171.94
2018-01-25T20:21:19.222Z,100169.42
2018-01-25T20:23:48.298Z,100158.39
2018-01-25T20:26:15.768Z,100160.91
2018-01-25T20:28:43.268Z,100162.76
2018-01-25T20:31:10.784Z,100159.72
2018-01-25T20:33:38.310Z,100161.63
2018-01-25T20:36:05.871Z,100162.69
2018-01-25T20:38:33.424Z,100168.23
2018-01-25T20:41:01.536Z,100159.34
2018-01-25T20:43:29.050Z,100171.65
2018-01-25T20:45:56.694Z,100163.80
2018-01-25T20:48:24.245Z,100161.49
2018-01-25T20:50:51.805Z,100167.52
2018-01-25T20:53:24.437Z,100161.31
2018-01-25T20:55:52.035Z,100161.84
2018-01-25T20:58:19.531Z,100160.36
2018-01-25T21:00:47.979Z,100158.05
2018-01-25T21:03:15.471Z,100154.47
2018-01-25T21:05:43.066Z,100155.40
2018-01-25T21:08:10.649Z,100147.98
2018-01-25T21:10:38.161Z,100151.55
2018-01-25T21:13:05.726Z,100153.00
2018-01-25T21:15:33.268Z,100151.81
2018-01-25T21:18:00.820Z,100147.69
2018-01-25T21:20:28.412Z,100149.16
2018-01-25T21:22:56.011Z,100148.87
2018-01-25T21:25:23.484Z,100138.66
2018-01-25T21:27:50.980Z,100140.30
2018-01-25T21:30:18.457Z,100138.82
2018-01-25T21:32:46.205Z,100132.03
2018-01-25T21:35:13.808Z,100136.22
2018-01-25T21:37:41.313Z,100129.98
2018-01-25T21:40:08.848Z,100128.89
2018-01-25T21:42:36.391Z,100125.31
2018-01-25T21:45:03.924Z,100123.08
2018-01-25T21:47:31.523Z,100123.34
2018-01-25T21:49:59.332Z,100122.77
2018-01-25T21:52:26.845Z,100120.69
2018-01-25T21:54:55.860Z,100123.05
2018-01-25T21:57:24.574Z,100122.63
2018-01-25T21:59:54.964Z,100130.56
2018-01-25T22:02:22.604Z,100127.62
2018-01-25T22:04:50.184Z,100122.56
2018-01-25T22:07:18.277Z,100128.55
2018-01-25T22:09:45.769Z,100123.87
2018-01-25T22:12:13.658Z,100122.95
2018-01-25T22:14:41.277Z,100130.89
2018-01-25T22:17:08.772Z,100118.64
2018-01-25T22:19:36.394Z,100120.34
2018-01-25T22:22:03.852Z,100117.92
2018-01-25T22:24:31.352Z,100109.16
2018-01-25T22:26:58.823Z,100107.87
2018-01-25T22:29:26.378Z,100097.53
2018-01-25T22:31:53.865Z,100104.61
2018-01-25T22:34:21.456Z,100102.98
2018-01-25T22:36:49.000Z,100103.34
2018-01-25T22:39:16.503Z,100111.07
2018-01-25T22:41:43.993Z,100114.94
2018-01-25T22:44:11.451Z,100120.55
2018-01-25T22:46:39.280Z,100115.17
2018-01-25T22:49:06.949Z,100121.95
2018-01-25T22:51:34.422Z,100117.59
2018-01-25T22:54:01.947Z,100119.23
2018-01-25T22:56:29.510Z,100122.81
2018-01-25T22:58:57.195Z,100122.31
2018-01-25T23:01:24.816Z,100121.77
2018-01-25T23:03:58.918Z,100126.67
2018-01-25T23:06:26.429Z,100126.06
2018-01-25T23:08:54.032Z,100124.48
2018-01-25T23:11:22.345Z,100121.56
2018-01-25T23:13:49.871Z,100116.22
2018-01-25T23:16:17.823Z,100127.34
2018-01-25T23:18:45.935Z,100125.56
2018-01-25T23:21:13.552Z,100121.58
2018-01-25T23:23:41.133Z,100128.45
2018-01-25T23:26:08.828Z,100124.03
2018-01-25T23:28:36.458Z,100121.23
2018-01-25T23:31:03.977Z,100121.92
2018-01-25T23:33:31.474Z,100124.23
2018-01-25T23:35:58.983Z,100121.44
2018-01-25T23:38:35.037Z,100120.38
2018-01-25T23:41:02.865Z,100115.20
2018-01-25T23:43:31.345Z,100112.02
2018-01-25T23:45:58.896Z,100106.86
2018-01-25T23:48:26.520Z,100106.73
2018-01-25T23:50:54.120Z,100110.81
2018-01-25T23:53:21.660Z,100109.48
2018-01-25T23:55:49.151Z,100116.27
2018-01-25T23:58:16.631Z,100113.84
